createdAt,value
2016-11-11T00:00:25.188Z,929.67
2016-11-11T00:01:25.023Z,929.68
2016-11-11T00:02:25.088Z,929.68
2016-11-11T00:03:25.150Z,929.72
2016-11-11T00:04:25.171Z,929.7
2016-11-11T00:05:25.249Z,929.66
2016-11-11T00:06:25.286Z,929.68
2016-11-11T00:07:25.344Z,929.65
2016-11-11T00:08:25.377Z,929.65
2016-11-11T00:09:25.457Z,929.72
2016-11-11T00:10:25.498Z,929.65
2016-11-11T00:11:25.531Z,929.72
2016-11-11T00:12:25.588Z,929.67
2016-11-11T00:13:25.657Z,929.65
2016-11-11T00:14:25.685Z,929.65
2016-11-11T00:15:25.747Z,929.65
2016-11-11T00:16:25.815Z,929.67
2016-11-11T00:17:25.838Z,929.65
2016-11-11T00:18:25.921Z,929.64
2016-11-11T00:19:25.947Z,929.72
2016-11-11T00:20:25.995Z,929.7
2016-11-11T00:21:26.078Z,929.75
2016-11-11T00:22:26.122Z,929.75
2016-11-11T00:23:26.151Z,929.73
2016-11-11T00:24:26.232Z,929.72
2016-11-11T00:25:26.254Z,929.74
2016-11-11T00:26:26.409Z,929.72
2016-11-11T00:27:26.375Z,929.75
2016-11-11T00:28:26.414Z,929.74
2016-11-11T00:29:26.464Z,929.76
2016-11-11T00:30:26.513Z,929.78
2016-11-11T00:31:26.561Z,929.77
2016-11-11T00:32:26.617Z,929.8
2016-11-11T00:33:26.676Z,929.79
2016-11-11T00:34:26.717Z,929.8
2016-11-11T00:35:26.768Z,929.83
2016-11-11T00:36:26.816Z,929.84
2016-11-11T00:37:26.872Z,929.82
2016-11-11T00:38:26.922Z,929.82
2016-11-11T00:39:26.975Z,929.81
2016-11-11T00:40:27.036Z,929.84
2016-11-11T00:41:27.087Z,929.87
2016-11-11T00:42:27.126Z,929.86
2016-11-11T00:43:27.187Z,929.89
2016-11-11T00:44:27.245Z,929.89
2016-11-11T00:45:27.304Z,929.87
2016-11-11T00:46:27.334Z,929.83
2016-11-11T00:47:27.392Z,929.81
2016-11-11T00:48:27.445Z,929.81
2016-11-11T00:49:27.485Z,929.81
2016-11-11T00:50:27.562Z,929.78
2016-11-11T00:51:27.593Z,929.74
2016-11-11T00:52:27.637Z,929.78
2016-11-11T00:53:27.710Z,929.8
2016-11-11T00:54:27.754Z,929.74
2016-11-11T00:55:27.820Z,929.77
2016-11-11T00:56:27.845Z,929.79
2016-11-11T00:57:27.913Z,929.75
2016-11-11T00:58:27.952Z,929.73
2016-11-11T00:59:28.026Z,929.75
2016-11-11T01:00:28.058Z,929.76
2016-11-11T01:01:28.102Z,929.82
2016-11-11T01:02:28.376Z,929.82
2016-11-11T01:03:28.211Z,929.79
2016-11-11T01:04:28.256Z,929.83
2016-11-11T01:05:28.322Z,929.85
2016-11-11T01:06:28.369Z,929.85
2016-11-11T01:07:28.425Z,929.85
2016-11-11T01:08:28.468Z,929.84
2016-11-11T01:09:28.544Z,929.87
2016-11-11T01:10:28.590Z,929.84
2016-11-11T01:11:28.638Z,929.9
2016-11-11T01:12:28.671Z,929.85
2016-11-11T01:13:28.741Z,929.89
2016-11-11T01:14:28.778Z,929.9
2016-11-11T01:15:28.830Z,929.88
2016-11-11T01:16:28.897Z,929.87
2016-11-11T01:17:28.934Z,929.87
2016-11-11T01:18:28.984Z,929.85
2016-11-11T01:19:29.046Z,929.81
2016-11-11T01:20:29.096Z,929.85
2016-11-11T01:21:29.132Z,929.8
2016-11-11T01:22:29.186Z,929.76
2016-11-11T01:23:29.248Z,929.74
2016-11-11T01:24:29.292Z,929.75
2016-11-11T01:25:29.350Z,929.71
2016-11-11T01:26:29.392Z,929.73
2016-11-11T01:27:29.449Z,929.71
2016-11-11T01:28:29.492Z,929.68
2016-11-11T01:29:29.569Z,929.65
2016-11-11T01:30:29.610Z,929.63
2016-11-11T01:31:29.644Z,929.63
2016-11-11T01:32:29.705Z,929.66
2016-11-11T01:33:29.955Z,929.64
2016-11-11T01:34:29.807Z,929.64
2016-11-11T01:35:29.862Z,929.66
2016-11-11T01:36:29.901Z,929.65
2016-11-11T01:37:29.961Z,929.63
2016-11-11T01:38:30.025Z,929.62
2016-11-11T01:39:30.055Z,929.59
2016-11-11T01:40:30.112Z,929.51
2016-11-11T01:41:30.185Z,929.51
2016-11-11T01:42:30.211Z,929.5
2016-11-11T01:43:30.300Z,929.51
2016-11-11T01:44:30.321Z,929.5
2016-11-11T01:45:30.373Z,929.5
2016-11-11T01:46:30.417Z,929.49
2016-11-11T01:47:30.463Z,929.48
2016-11-11T01:48:30.532Z,929.47
2016-11-11T01:49:30.567Z,929.45
2016-11-11T01:50:30.635Z,929.43
2016-11-11T01:51:30.669Z,929.42
2016-11-11T01:52:30.751Z,929.37
2016-11-11T01:53:30.780Z,929.38
2016-11-11T01:54:30.841Z,929.33
2016-11-11T01:55:30.880Z,929.36
2016-11-11T01:56:30.938Z,929.35
2016-11-11T01:57:31.000Z,929.29
2016-11-11T01:58:31.058Z,929.29
2016-11-11T01:59:31.281Z,929.23
2016-11-11T02:00:31.144Z,929.21
2016-11-11T02:01:31.200Z,929.19
2016-11-11T02:02:31.263Z,929.21
2016-11-11T02:03:31.329Z,929.18
2016-11-11T02:04:31.360Z,929.15
2016-11-11T02:05:31.410Z,929.15
2016-11-11T02:06:31.447Z,929.16
2016-11-11T02:07:31.496Z,929.13
2016-11-11T02:08:31.545Z,929.14
2016-11-11T02:09:31.616Z,929.12
2016-11-11T02:10:31.678Z,929.15
2016-11-11T02:11:31.698Z,929.16
2016-11-11T02:12:31.758Z,929.18
2016-11-11T02:13:31.808Z,929.19
2016-11-11T02:14:31.865Z,929.19
2016-11-11T02:15:31.910Z,929.19
2016-11-11T02:16:31.994Z,929.13
2016-11-11T02:17:32.037Z,929.14
2016-11-11T02:18:32.080Z,929.11
2016-11-11T02:19:32.115Z,929.11
2016-11-11T02:20:32.165Z,929.07
2016-11-11T02:21:32.231Z,929.05
2016-11-11T02:22:32.269Z,929.04
2016-11-11T02:23:32.344Z,929.01
2016-11-11T02:24:32.373Z,929.05
2016-11-11T02:25:32.630Z,928.99
2016-11-11T02:26:32.475Z,929.03
2016-11-11T02:27:32.539Z,929.07
2016-11-11T02:28:32.587Z,929.08
2016-11-11T02:29:32.637Z,929.05
2016-11-11T02:30:32.917Z,929.05
2016-11-11T02:31:32.745Z,929.02
2016-11-11T02:32:32.801Z,928.98
2016-11-11T02:33:32.861Z,928.95
2016-11-11T02:34:32.904Z,928.91
2016-11-11T02:35:32.946Z,928.86
2016-11-11T02:36:32.992Z,928.82
2016-11-11T02:37:33.049Z,928.83
2016-11-11T02:38:33.110Z,928.81
2016-11-11T02:39:33.178Z,928.76
2016-11-11T02:40:33.201Z,928.79
2016-11-11T02:41:33.276Z,928.75
2016-11-11T02:42:33.303Z,928.7
2016-11-11T02:43:33.379Z,928.7
2016-11-11T02:44:33.430Z,928.66
2016-11-11T02:45:33.465Z,928.6
2016-11-11T02:46:33.519Z,928.62
2016-11-11T02:47:33.573Z,928.58
2016-11-11T02:48:33.625Z,928.49
2016-11-11T02:49:33.691Z,928.49
2016-11-11T02:50:33.743Z,928.42
2016-11-11T02:51:33.788Z,928.41
2016-11-11T02:52:33.818Z,928.36
2016-11-11T02:53:33.894Z,928.34
2016-11-11T02:54:33.949Z,928.32
2016-11-11T02:55:33.987Z,928.3
2016-11-11T02:56:34.028Z,928.33
2016-11-11T02:57:34.077Z,928.31
2016-11-11T02:58:34.152Z,928.32
2016-11-11T02:59:34.189Z,928.35
2016-11-11T03:00:34.258Z,928.34
2016-11-11T03:01:34.399Z,928.35
2016-11-11T03:02:34.333Z,928.33
2016-11-11T03:03:34.385Z,928.34
2016-11-11T03:04:34.466Z,928.3
2016-11-11T03:05:34.498Z,928.28
2016-11-11T03:06:34.653Z,928.28
2016-11-11T03:07:34.609Z,928.3
2016-11-11T03:08:34.651Z,928.24
2016-11-11T03:09:34.695Z,928.32
2016-11-11T03:10:34.768Z,928.31
2016-11-11T03:11:34.814Z,928.32
2016-11-11T03:12:34.860Z,928.31
2016-11-11T03:13:34.908Z,928.34
2016-11-11T03:14:34.968Z,928.32
2016-11-11T03:15:35.019Z,928.33
2016-11-11T03:16:35.059Z,928.29
2016-11-11T03:17:35.121Z,928.31
2016-11-11T03:18:35.185Z,928.3
2016-11-11T03:19:35.227Z,928.24
2016-11-11T03:20:35.266Z,928.26
2016-11-11T03:21:35.343Z,928.28
2016-11-11T03:22:35.393Z,928.26
2016-11-11T03:23:35.419Z,928.25
2016-11-11T03:24:35.505Z,928.27
2016-11-11T03:25:35.539Z,928.27
2016-11-11T03:26:35.574Z,928.22
2016-11-11T03:27:35.626Z,928.25
2016-11-11T03:28:35.677Z,928.21
2016-11-11T03:29:35.736Z,928.18
2016-11-11T03:30:35.786Z,928.19
2016-11-11T03:31:35.831Z,928.15
2016-11-11T03:32:35.900Z,928.2
2016-11-11T03:33:35.939Z,928.17
2016-11-11T03:34:36.013Z,928.19
2016-11-11T03:35:36.063Z,928.16
2016-11-11T03:36:36.094Z,928.11
2016-11-11T03:37:36.359Z,928.14
2016-11-11T03:38:36.198Z,928.13
2016-11-11T03:39:36.276Z,928.11
2016-11-11T03:40:36.323Z,928.08
2016-11-11T03:41:36.351Z,928.08
2016-11-11T03:42:36.417Z,928.04
2016-11-11T03:43:36.450Z,928.07
2016-11-11T03:44:36.513Z,928.04
2016-11-11T03:45:36.586Z,928.05
2016-11-11T03:46:36.621Z,928.03
2016-11-11T03:47:36.661Z,928.02
2016-11-11T03:48:36.708Z,928.01
2016-11-11T03:49:36.772Z,928.01
2016-11-11T03:50:36.837Z,928.03
2016-11-11T03:51:36.888Z,928.05
2016-11-11T03:52:36.928Z,928.08
2016-11-11T03:53:36.974Z,928.05
2016-11-11T03:54:37.020Z,928.07
2016-11-11T03:55:37.078Z,928.09
2016-11-11T03:56:37.122Z,928.07
2016-11-11T03:57:37.189Z,928.05
2016-11-11T03:58:37.257Z,928.11
2016-11-11T03:59:37.283Z,928.03
2016-11-11T04:00:37.328Z,927.97
2016-11-11T04:01:37.391Z,927.98
2016-11-11T04:02:37.428Z,927.96
2016-11-11T04:03:37.507Z,927.94
2016-11-11T04:04:37.556Z,927.94
2016-11-11T04:05:37.596Z,927.94
2016-11-11T04:06:37.648Z,928
2016-11-11T04:07:37.684Z,927.96
2016-11-11T04:08:37.839Z,927.96
2016-11-11T04:09:37.791Z,927.95
2016-11-11T04:10:37.872Z,927.95
2016-11-11T04:11:37.907Z,927.94
2016-11-11T04:12:37.945Z,927.92
2016-11-11T04:13:38.169Z,927.91
2016-11-11T04:14:38.054Z,927.89
2016-11-11T04:15:38.098Z,927.86
2016-11-11T04:16:38.165Z,927.82
2016-11-11T04:17:38.221Z,927.8
2016-11-11T04:18:38.260Z,927.81
2016-11-11T04:19:38.300Z,927.79
2016-11-11T04:20:38.367Z,927.8
2016-11-11T04:21:38.404Z,927.82
2016-11-11T04:22:38.490Z,927.81
2016-11-11T04:23:38.523Z,927.79
2016-11-11T04:24:38.584Z,927.8
2016-11-11T04:25:38.607Z,927.79
2016-11-11T04:26:38.664Z,927.8
2016-11-11T04:27:38.715Z,927.8
2016-11-11T04:28:38.783Z,927.81
2016-11-11T04:29:38.813Z,927.8
2016-11-11T04:30:38.875Z,927.85
2016-11-11T04:31:38.929Z,927.84
2016-11-11T04:32:38.984Z,927.82
2016-11-11T04:33:39.049Z,927.81
2016-11-11T04:34:39.085Z,927.81
2016-11-11T04:35:39.130Z,927.79
2016-11-11T04:36:39.182Z,927.79
2016-11-11T04:37:39.233Z,927.77
2016-11-11T04:38:39.291Z,927.82
2016-11-11T04:39:39.364Z,927.86
2016-11-11T04:40:39.379Z,927.86
2016-11-11T04:41:39.432Z,927.85
2016-11-11T04:42:39.503Z,927.86
2016-11-11T04:43:39.542Z,927.84
2016-11-11T04:44:39.739Z,927.86
2016-11-11T04:45:39.645Z,927.86
2016-11-11T04:46:39.697Z,927.86
2016-11-11T04:47:39.769Z,927.85
2016-11-11T04:48:39.802Z,927.86
2016-11-11T04:49:39.952Z,927.84
2016-11-11T04:50:39.912Z,927.83
2016-11-11T04:51:39.964Z,927.84
2016-11-11T04:52:39.998Z,927.84
2016-11-11T04:53:40.081Z,927.83
2016-11-11T04:54:40.103Z,927.85
2016-11-11T04:55:40.167Z,927.88
2016-11-11T04:56:40.228Z,927.88
2016-11-11T04:57:40.253Z,927.87
2016-11-11T04:58:40.321Z,927.91
2016-11-11T04:59:40.389Z,927.93
2016-11-11T05:00:40.420Z,927.92
2016-11-11T05:01:40.484Z,927.92
2016-11-11T05:02:40.526Z,927.89
2016-11-11T05:03:40.575Z,927.96
2016-11-11T05:04:40.643Z,927.91
2016-11-11T05:05:40.696Z,927.91
2016-11-11T05:06:40.722Z,927.9
2016-11-11T05:07:40.776Z,927.92
2016-11-11T05:08:40.831Z,927.87
2016-11-11T05:09:40.887Z,927.86
2016-11-11T05:10:40.947Z,927.84
2016-11-11T05:11:41.002Z,927.8
2016-11-11T05:12:41.026Z,927.8
2016-11-11T05:13:41.115Z,927.78
2016-11-11T05:14:41.143Z,927.77
2016-11-11T05:15:41.184Z,927.74
2016-11-11T05:16:41.231Z,927.71
2016-11-11T05:17:41.283Z,927.77
2016-11-11T05:18:41.333Z,927.76
2016-11-11T05:19:41.385Z,927.73
2016-11-11T05:20:41.549Z,927.67
2016-11-11T05:21:41.513Z,927.69
2016-11-11T05:22:41.550Z,927.67
2016-11-11T05:23:41.592Z,927.65
2016-11-11T05:24:41.667Z,927.67
2016-11-11T05:25:41.699Z,927.66
2016-11-11T05:26:41.744Z,927.64
2016-11-11T05:27:41.798Z,927.62
2016-11-11T05:28:41.866Z,927.68
2016-11-11T05:29:41.905Z,927.65
2016-11-11T05:30:41.983Z,927.67
2016-11-11T05:31:42.023Z,927.69
2016-11-11T05:32:42.069Z,927.68
2016-11-11T05:33:42.109Z,927.68
2016-11-11T05:34:42.166Z,927.67
2016-11-11T05:35:42.234Z,927.66
2016-11-11T05:36:42.286Z,927.66
2016-11-11T05:37:42.311Z,927.62
2016-11-11T05:38:42.374Z,927.58
2016-11-11T05:39:42.411Z,927.57
2016-11-11T05:40:42.477Z,927.52
2016-11-11T05:41:42.530Z,927.53
2016-11-11T05:42:42.571Z,927.54
2016-11-11T05:43:42.618Z,927.52
2016-11-11T05:44:42.683Z,927.56
2016-11-11T05:45:42.732Z,927.52
2016-11-11T05:46:42.786Z,927.54
2016-11-11T05:47:42.857Z,927.52
2016-11-11T05:48:42.875Z,927.55
2016-11-11T05:49:42.960Z,927.53
2016-11-11T05:50:42.989Z,927.55
2016-11-11T05:51:43.228Z,927.58
2016-11-11T05:52:43.085Z,927.58
2016-11-11T05:53:43.160Z,927.56
2016-11-11T05:54:43.208Z,927.56
2016-11-11T05:55:43.239Z,927.57
2016-11-11T05:56:43.284Z,927.58
2016-11-11T05:57:43.360Z,927.57
2016-11-11T05:58:43.392Z,927.56
2016-11-11T05:59:43.462Z,927.56
2016-11-11T06:00:43.513Z,927.58
2016-11-11T06:01:43.565Z,927.52
2016-11-11T06:02:43.606Z,927.54
2016-11-11T06:03:43.674Z,927.53
2016-11-11T06:04:43.695Z,927.51
2016-11-11T06:05:43.771Z,927.49
2016-11-11T06:06:43.808Z,927.46
2016-11-11T06:07:43.862Z,927.42
2016-11-11T06:08:43.913Z,927.43
2016-11-11T06:09:43.950Z,927.4
2016-11-11T06:10:44.007Z,927.42
2016-11-11T06:11:44.078Z,927.42
2016-11-11T06:12:44.102Z,927.39
2016-11-11T06:13:44.169Z,927.37
2016-11-11T06:14:44.213Z,927.35
2016-11-11T06:15:44.272Z,927.34
2016-11-11T06:16:44.307Z,927.34
2016-11-11T06:17:44.393Z,927.34
2016-11-11T06:18:44.412Z,927.35
2016-11-11T06:19:44.468Z,927.36
2016-11-11T06:20:44.512Z,927.4
2016-11-11T06:21:44.583Z,927.41
2016-11-11T06:22:44.826Z,927.41
2016-11-11T06:23:44.667Z,927.41
2016-11-11T06:24:44.732Z,927.41
2016-11-11T06:25:44.775Z,927.42
2016-11-11T06:26:44.826Z,927.44
2016-11-11T06:27:44.888Z,927.43
2016-11-11T06:28:44.947Z,927.47
2016-11-11T06:29:44.985Z,927.48
2016-11-11T06:30:45.053Z,927.54
2016-11-11T06:31:45.077Z,927.49
2016-11-11T06:32:45.126Z,927.5
2016-11-11T06:33:45.206Z,927.49
2016-11-11T06:34:45.240Z,927.5
2016-11-11T06:35:45.311Z,927.46
2016-11-11T06:36:45.342Z,927.49
2016-11-11T06:37:45.402Z,927.53
2016-11-11T06:38:45.457Z,927.54
2016-11-11T06:39:45.487Z,927.52
2016-11-11T06:40:45.551Z,927.51
2016-11-11T06:41:45.617Z,927.5
2016-11-11T06:42:45.664Z,927.5
2016-11-11T06:43:45.699Z,927.48
2016-11-11T06:44:45.744Z,927.51
2016-11-11T06:45:45.792Z,927.51
2016-11-11T06:46:45.856Z,927.56
2016-11-11T06:47:45.895Z,927.53
2016-11-11T06:48:45.965Z,927.54
2016-11-11T06:49:46.009Z,927.55
2016-11-11T06:50:46.060Z,927.57
2016-11-11T06:51:46.131Z,927.58
2016-11-11T06:52:46.156Z,927.54
2016-11-11T06:53:46.315Z,927.51
2016-11-11T06:54:46.254Z,927.48
2016-11-11T06:55:46.315Z,927.49
2016-11-11T06:56:46.383Z,927.5
2016-11-11T06:57:46.440Z,927.49
2016-11-11T06:58:46.565Z,927.56
2016-11-11T06:59:46.524Z,927.51
2016-11-11T07:00:46.590Z,927.5
2016-11-11T07:01:46.612Z,927.56
2016-11-11T07:02:46.679Z,927.58
2016-11-11T07:03:46.741Z,927.57
2016-11-11T07:04:46.768Z,927.58
2016-11-11T07:05:46.830Z,927.6
2016-11-11T07:06:46.877Z,927.62
2016-11-11T07:07:46.950Z,927.63
2016-11-11T07:08:46.972Z,927.64
2016-11-11T07:09:47.035Z,927.64
2016-11-11T07:10:47.098Z,927.62
2016-11-11T07:11:47.142Z,927.65
2016-11-11T07:12:47.181Z,927.63
2016-11-11T07:13:47.236Z,927.65
2016-11-11T07:14:47.282Z,927.65
2016-11-11T07:15:47.347Z,927.67
2016-11-11T07:16:47.391Z,927.69
2016-11-11T07:17:47.446Z,927.7
2016-11-11T07:18:47.481Z,927.73
2016-11-11T07:19:47.539Z,927.68
2016-11-11T07:20:47.597Z,927.73
2016-11-11T07:21:47.663Z,927.68
2016-11-11T07:22:47.691Z,927.72
2016-11-11T07:23:47.753Z,927.71
2016-11-11T07:24:47.918Z,927.71
2016-11-11T07:25:47.839Z,927.67
2016-11-11T07:26:47.892Z,927.65
2016-11-11T07:27:47.944Z,927.64
2016-11-11T07:28:47.997Z,927.62
2016-11-11T07:29:48.052Z,927.56
2016-11-11T07:30:48.115Z,927.55
2016-11-11T07:31:48.180Z,927.53
2016-11-11T07:32:48.200Z,927.56
2016-11-11T07:33:48.248Z,927.57
2016-11-11T07:34:48.328Z,927.56
2016-11-11T07:35:48.365Z,927.56
2016-11-11T07:36:48.427Z,927.63
2016-11-11T07:37:48.484Z,927.59
2016-11-11T07:38:48.515Z,927.58
2016-11-11T07:39:48.575Z,927.59
2016-11-11T07:40:48.624Z,927.51
2016-11-11T07:41:48.664Z,927.53
2016-11-11T07:42:48.709Z,927.49
2016-11-11T07:43:48.762Z,927.5
2016-11-11T07:44:48.822Z,927.49
2016-11-11T07:45:48.866Z,927.48
2016-11-11T07:46:48.943Z,927.48
2016-11-11T07:47:48.982Z,927.42
2016-11-11T07:48:49.046Z,927.45
2016-11-11T07:49:49.089Z,927.43
2016-11-11T07:50:49.328Z,927.41
2016-11-11T07:51:49.175Z,927.4
2016-11-11T07:52:49.224Z,927.41
2016-11-11T07:53:49.279Z,927.36
2016-11-11T07:54:49.330Z,927.36
2016-11-11T07:55:49.487Z,927.41
2016-11-11T07:56:49.439Z,927.39
2016-11-11T07:57:49.499Z,927.39
2016-11-11T07:58:49.555Z,927.38
2016-11-11T07:59:49.590Z,927.41
2016-11-11T08:00:49.643Z,927.42
2016-11-11T08:01:49.686Z,927.41
2016-11-11T08:02:49.758Z,927.43
2016-11-11T08:03:49.797Z,927.44
2016-11-11T08:04:49.863Z,927.4
2016-11-11T08:05:49.888Z,927.41
2016-11-11T08:06:49.964Z,927.43
2016-11-11T08:07:49.988Z,927.43
2016-11-11T08:08:50.054Z,927.48
2016-11-11T08:09:50.096Z,927.51
2016-11-11T08:10:50.154Z,927.52
2016-11-11T08:11:50.207Z,927.45
2016-11-11T08:12:50.271Z,927.54
2016-11-11T08:13:50.312Z,927.56
2016-11-11T08:14:50.345Z,927.57
2016-11-11T08:15:50.406Z,927.62
2016-11-11T08:16:50.472Z,927.61
2016-11-11T08:17:50.508Z,927.63
2016-11-11T08:18:50.553Z,927.63
2016-11-11T08:19:50.601Z,927.62
2016-11-11T08:20:50.651Z,927.6
2016-11-11T08:21:50.711Z,927.61
2016-11-11T08:22:50.783Z,927.61
2016-11-11T08:23:50.825Z,927.62
2016-11-11T08:24:50.864Z,927.63
2016-11-11T08:25:50.908Z,927.64
2016-11-11T08:26:51.160Z,927.66
2016-11-11T08:27:51.023Z,927.68
2016-11-11T08:28:51.069Z,927.74
2016-11-11T08:29:51.114Z,927.79
2016-11-11T08:30:51.164Z,927.81
2016-11-11T08:31:51.244Z,927.86
2016-11-11T08:32:51.266Z,927.86
2016-11-11T08:33:51.343Z,927.89
2016-11-11T08:34:51.394Z,927.85
2016-11-11T08:35:51.436Z,927.83
2016-11-11T08:36:51.464Z,927.83
2016-11-11T08:37:51.545Z,927.86
2016-11-11T08:38:51.582Z,927.86
2016-11-11T08:39:51.618Z,927.88
2016-11-11T08:40:51.700Z,927.92
2016-11-11T08:41:51.722Z,927.9
2016-11-11T08:42:51.773Z,927.9
2016-11-11T08:43:51.844Z,927.91
2016-11-11T08:44:51.900Z,927.95
2016-11-11T08:45:51.936Z,927.95
2016-11-11T08:46:52.001Z,927.99
2016-11-11T08:47:52.031Z,928
2016-11-11T08:48:52.113Z,928.01
2016-11-11T08:49:52.128Z,928.05
2016-11-11T08:50:52.195Z,928.06
2016-11-11T08:51:52.264Z,928.09
2016-11-11T08:52:52.291Z,928.16
2016-11-11T08:53:52.340Z,928.22
2016-11-11T08:54:52.386Z,928.26
2016-11-11T08:55:52.437Z,928.25
2016-11-11T08:56:52.512Z,928.28
2016-11-11T08:57:52.765Z,928.25
2016-11-11T08:58:52.590Z,928.29
2016-11-11T08:59:52.652Z,928.29
2016-11-11T09:00:52.696Z,928.3
2016-11-11T09:01:52.768Z,928.26
2016-11-11T09:02:53.015Z,928.27
2016-11-11T09:03:52.857Z,928.29
2016-11-11T09:04:52.910Z,928.27
2016-11-11T09:05:52.957Z,928.26
2016-11-11T09:06:53.034Z,928.29
2016-11-11T09:07:53.048Z,928.29
2016-11-11T09:08:53.131Z,928.26
2016-11-11T09:09:53.165Z,928.28
2016-11-11T09:10:53.205Z,928.23
2016-11-11T09:11:53.253Z,928.2
2016-11-11T09:12:53.304Z,928.22
2016-11-11T09:13:53.382Z,928.19
2016-11-11T09:14:53.452Z,928.21
2016-11-11T09:15:53.475Z,928.18
2016-11-11T09:16:53.541Z,928.18
2016-11-11T09:17:53.565Z,928.18
2016-11-11T09:18:53.649Z,928.12
2016-11-11T09:19:53.662Z,928.2
2016-11-11T09:20:53.718Z,928.14
2016-11-11T09:21:53.792Z,928.15
2016-11-11T09:22:53.820Z,928.2
2016-11-11T09:23:53.873Z,928.2
2016-11-11T09:24:53.950Z,928.21
2016-11-11T09:25:53.999Z,928.18
2016-11-11T09:26:54.039Z,928.21
2016-11-11T09:27:54.102Z,928.17
2016-11-11T09:28:54.240Z,928.16
2016-11-11T09:29:54.199Z,928.14
2016-11-11T09:30:54.272Z,928.17
2016-11-11T09:31:54.318Z,928.16
2016-11-11T09:32:54.345Z,928.17
2016-11-11T09:33:54.403Z,928.22
2016-11-11T09:34:54.461Z,928.21
2016-11-11T09:35:54.509Z,928.17
2016-11-11T09:36:54.564Z,928.15
2016-11-11T09:37:54.625Z,928.13
2016-11-11T09:38:54.687Z,928.13
2016-11-11T09:39:54.743Z,928.11
2016-11-11T09:40:54.819Z,928.12
2016-11-11T09:41:54.854Z,928.14
2016-11-11T09:42:54.909Z,928.11
2016-11-11T09:43:54.960Z,928.12
2016-11-11T09:44:55.013Z,928.11
2016-11-11T09:45:55.074Z,928.08
2016-11-11T09:46:55.130Z,928.1
2016-11-11T09:47:55.191Z,928.13
2016-11-11T09:48:55.269Z,928.12
2016-11-11T09:49:55.308Z,928.14
2016-11-11T09:50:55.352Z,928.11
2016-11-11T09:51:55.404Z,928.11
2016-11-11T09:52:55.468Z,928.11
2016-11-11T09:53:55.543Z,928.11
2016-11-11T09:54:55.782Z,928.12
2016-11-11T09:55:55.629Z,928.08
2016-11-11T09:56:55.680Z,928.08
2016-11-11T09:57:55.784Z,928.05
2016-11-11T09:58:55.823Z,928.08
2016-11-11T09:59:55.855Z,928.04
2016-11-11T10:00:55.942Z,928.03
2016-11-11T10:01:55.982Z,928
2016-11-11T10:02:56.020Z,927.97
2016-11-11T10:03:56.092Z,927.98
2016-11-11T10:04:56.166Z,927.98
2016-11-11T10:05:56.217Z,927.95
2016-11-11T10:06:56.249Z,927.91
2016-11-11T10:07:56.318Z,927.9
2016-11-11T10:08:56.378Z,927.89
2016-11-11T10:09:56.429Z,927.9
2016-11-11T10:10:56.496Z,927.87
2016-11-11T10:11:56.548Z,927.86
2016-11-11T10:12:56.625Z,927.85
2016-11-11T10:13:56.658Z,927.82
2016-11-11T10:14:56.712Z,927.78
2016-11-11T10:15:56.782Z,927.69
2016-11-11T10:16:56.872Z,927.68
2016-11-11T10:17:56.905Z,927.64
2016-11-11T10:18:56.967Z,927.6
2016-11-11T10:19:57.030Z,927.58
2016-11-11T10:20:57.063Z,927.55
2016-11-11T10:21:57.153Z,927.49
2016-11-11T10:22:57.195Z,927.5
2016-11-11T10:23:57.224Z,927.39
2016-11-11T10:24:57.292Z,927.35
2016-11-11T10:25:57.374Z,927.32
2016-11-11T10:26:57.426Z,927.31
2016-11-11T10:27:57.465Z,927.32
2016-11-11T10:28:57.532Z,927.32
2016-11-11T10:29:57.592Z,927.27
2016-11-11T10:30:57.630Z,927.22
2016-11-11T10:31:57.684Z,927.26
2016-11-11T10:32:57.741Z,927.22
2016-11-11T10:33:57.790Z,927.18
2016-11-11T10:34:57.842Z,927.14
2016-11-11T10:35:57.994Z,927.14
2016-11-11T10:36:57.957Z,927.14
2016-11-11T10:37:58.003Z,927.12
2016-11-11T10:38:58.074Z,927.13
2016-11-11T10:39:58.117Z,927.12
2016-11-11T10:40:58.180Z,927.15
2016-11-11T10:41:58.226Z,927.17
2016-11-11T10:42:58.285Z,927.16
2016-11-11T10:43:58.359Z,927.15
2016-11-11T10:44:58.395Z,927.15
2016-11-11T10:45:58.458Z,927.15
2016-11-11T10:46:58.509Z,927.19
2016-11-11T10:47:58.567Z,927.21
2016-11-11T10:48:58.620Z,927.27
2016-11-11T10:49:58.667Z,927.26
2016-11-11T10:50:58.718Z,927.23
2016-11-11T10:51:58.793Z,927.24
2016-11-11T10:52:58.851Z,927.21
2016-11-11T10:53:58.900Z,927.2
2016-11-11T10:54:58.969Z,927.26
2016-11-11T10:55:59.015Z,927.21
2016-11-11T10:56:59.059Z,927.22
2016-11-11T10:57:59.109Z,927.23
2016-11-11T10:58:59.167Z,927.22
2016-11-11T10:59:59.221Z,927.23
2016-11-11T11:00:59.277Z,927.21
2016-11-11T11:01:59.353Z,927.21
2016-11-11T11:02:59.404Z,927.24
2016-11-11T11:03:59.437Z,927.27
2016-11-11T11:04:59.478Z,927.25
2016-11-11T11:05:59.532Z,927.26
2016-11-11T11:06:59.586Z,927.28
2016-11-11T11:07:59.651Z,927.3
2016-11-11T11:08:59.704Z,927.28
2016-11-11T11:09:59.778Z,927.31
2016-11-11T11:10:59.818Z,927.4
2016-11-11T11:12:00.090Z,927.34
2016-11-11T11:12:59.946Z,927.34
2016-11-11T11:14:00.001Z,927.38
2016-11-11T11:15:00.023Z,927.38
2016-11-11T11:16:00.288Z,927.36
2016-11-11T11:17:00.161Z,927.38
2016-11-11T11:18:00.194Z,927.38
2016-11-11T11:19:00.265Z,927.4
2016-11-11T11:20:00.309Z,927.39
2016-11-11T11:21:00.351Z,927.31
2016-11-11T11:22:00.405Z,927.32
2016-11-11T11:23:00.487Z,927.34
2016-11-11T11:24:00.533Z,927.36
2016-11-11T11:25:00.595Z,927.33
2016-11-11T11:26:00.643Z,927.33
2016-11-11T11:27:00.682Z,927.34
2016-11-11T11:28:00.740Z,927.31
2016-11-11T11:29:00.792Z,927.3
2016-11-11T11:30:00.845Z,927.32
2016-11-11T11:31:00.900Z,927.31
2016-11-11T11:32:00.971Z,927.3
2016-11-11T11:33:01.028Z,927.34
2016-11-11T11:34:01.068Z,927.39
2016-11-11T11:35:01.129Z,927.41
2016-11-11T11:36:01.201Z,927.42
2016-11-11T11:37:01.242Z,927.42
2016-11-11T11:38:01.309Z,927.43
2016-11-11T11:39:01.357Z,927.4
2016-11-11T11:40:01.408Z,927.44
2016-11-11T11:41:01.465Z,927.44
2016-11-11T11:42:01.500Z,927.44
2016-11-11T11:43:01.757Z,927.46
2016-11-11T11:44:01.617Z,927.44
2016-11-11T11:45:01.694Z,927.49
2016-11-11T11:46:01.719Z,927.43
2016-11-11T11:47:01.774Z,927.4
2016-11-11T11:48:01.849Z,927.47
2016-11-11T11:49:01.901Z,927.47
2016-11-11T11:50:01.949Z,927.5
2016-11-11T11:51:02.006Z,927.51
2016-11-11T11:52:02.054Z,927.51
2016-11-11T11:53:02.110Z,927.52
2016-11-11T11:54:02.159Z,927.5
2016-11-11T11:55:02.211Z,927.53
2016-11-11T11:56:02.263Z,927.55
2016-11-11T11:57:02.336Z,927.55
2016-11-11T11:58:02.388Z,927.59
2016-11-11T11:59:02.443Z,927.57
2016-11-11T12:00:02.483Z,927.6
2016-11-11T12:01:02.575Z,927.59
2016-11-11T12:02:02.599Z,927.62
2016-11-11T12:03:02.651Z,927.58
2016-11-11T12:04:02.740Z,927.57
2016-11-11T12:05:02.774Z,927.54
2016-11-11T12:06:02.819Z,927.49
2016-11-11T12:07:02.880Z,927.47
2016-11-11T12:08:02.938Z,927.46
2016-11-11T12:09:03.222Z,927.49
2016-11-11T12:10:03.045Z,927.49
2016-11-11T12:11:03.118Z,927.52
2016-11-11T12:12:03.165Z,927.55
2016-11-11T12:13:03.223Z,927.57
2016-11-11T12:14:03.258Z,927.55
2016-11-11T12:15:03.349Z,927.55
2016-11-11T12:16:03.371Z,927.56
2016-11-11T12:17:03.449Z,927.59
2016-11-11T12:18:03.493Z,927.64
2016-11-11T12:19:03.560Z,927.6
2016-11-11T12:20:03.623Z,927.6
2016-11-11T12:21:03.647Z,927.64
2016-11-11T12:22:03.705Z,927.67
2016-11-11T12:23:03.785Z,927.67
2016-11-11T12:24:03.827Z,927.69
2016-11-11T12:25:03.889Z,927.7
2016-11-11T12:26:03.924Z,927.7
2016-11-11T12:27:03.990Z,927.69
2016-11-11T12:28:04.059Z,927.69
2016-11-11T12:29:04.098Z,927.61
2016-11-11T12:30:04.169Z,927.65
2016-11-11T12:31:04.219Z,927.64